Time;durP1;ratioP1;P1;durP2;ratioP2;P2;SDS_P1;SDS_P2;PMS_P1;PMS_P2;Temp;Humidity;BMP_temperature;BMP_pressure;BME280_temperature;BME280_humidity;BME280_pressure;Samples;Min_cycle;Max_cycle;Signal;HPM_P1;HPM_P2
2023/09/14 00:00:26;;;;;;;394.55;382.77;;;;;;;;;;5041392;28;20706;-91
2023/09/14 00:02:52;;;;;;;385.83;374.33;;;;;;;;;;5036935;28;20212;-89
2023/09/14 00:05:18;;;;;;;419.92;407.15;;;;;;;;;;5039006;28;20192;-90
2023/09/14 00:07:45;;;;;;;431.60;418.35;;;;;;;;;;5033901;28;20216;-90
2023/09/14 00:10:11;;;;;;;417.08;404.40;;;;;;;;;;5036800;28;20260;-90
2023/09/14 00:12:37;;;;;;;398.48;386.48;;;;;;;;;;5020692;28;20659;-91
2023/09/14 00:15:03;;;;;;;408.38;395.80;;;;;;;;;;5032177;28;20188;-91
2023/09/14 00:17:29;;;;;;;401.92;389.83;;;;;;;;;;5037098;28;20284;-90
2023/09/14 00:19:55;;;;;;;388.20;376.42;;;;;;;;;;5038309;28;20189;-90
2023/09/14 00:22:21;;;;;;;409.15;396.67;;;;;;;;;;5038817;28;20183;-90
2023/09/14 00:24:47;;;;;;;436.35;423.02;;;;;;;;;;5037966;28;20213;-91
2023/09/14 00:27:13;;;;;;;458.25;444.25;;;;;;;;;;5038411;28;20444;-90
2023/09/14 00:29:39;;;;;;;442.25;428.63;;;;;;;;;;5040269;28;20217;-90
2023/09/14 00:32:05;;;;;;;435.27;421.80;;;;;;;;;;5040249;28;20187;-90
2023/09/14 00:34:31;;;;;;;424.38;411.48;;;;;;;;;;5040133;28;20296;-89
2023/09/14 00:36:57;;;;;;;446.70;433.10;;;;;;;;;;5038541;28;20189;-91
2023/09/14 00:39:23;;;;;;;436.13;422.83;;;;;;;;;;5040015;28;20604;-90
2023/09/14 00:41:49;;;;;;;442.48;428.83;;;;;;;;;;5041203;28;20199;-90
2023/09/14 00:44:15;;;;;;;417.40;404.73;;;;;;;;;;5030159;28;20205;-91
2023/09/14 00:46:41;;;;;;;401.35;389.13;;;;;;;;;;5041027;28;20188;-91
2023/09/14 00:49:07;;;;;;;382.70;370.77;;;;;;;;;;5040776;28;20180;-91
2023/09/14 00:51:33;;;;;;;368.50;357.63;;;;;;;;;;5037321;28;20279;-90
2023/09/14 00:53:59;;;;;;;360.85;350.25;;;;;;;;;;5040157;28;20203;-90
2023/09/14 00:56:26;;;;;;;366.55;355.73;;;;;;;;;;5040401;28;20196;-90
2023/09/14 00:58:52;;;;;;;370.48;359.45;;;;;;;;;;5040942;28;20185;-91
2023/09/14 01:01:18;;;;;;;380.33;369.05;;;;;;;;;;5024664;28;20193;-90
2023/09/14 01:03:45;;;;;;;397.90;386.05;;;;;;;;;;5041391;28;20219;-90
2023/09/14 01:06:12;;;;;;;400.42;388.35;;;;;;;;;;5042764;28;20270;-90
2023/09/14 01:08:40;;;;;;;401.38;389.40;;;;;;;;;;5035892;28;20184;-90
2023/09/14 01:11:07;;;;;;;395.45;383.70;;;;;;;;;;5045709;28;20188;-90
2023/09/14 01:13:32;;;;;;;396.77;384.98;;;;;;;;;;5039002;28;20913;-89
2023/09/14 01:16:11;;;;;;;406.48;394.45;;;;;;;;;;5042546;28;20189;-90
2023/09/14 01:18:41;;;;;;;387.85;376.40;;;;;;;;;;5039408;28;20190;-90
2023/09/14 01:21:30;;;;;;;403.30;390.60;;;;;;;;;;5023085;28;20217;-90
2023/09/14 01:24:06;;;;;;;393.50;381.40;;;;;;;;;;5023897;28;20194;-91
2023/09/14 01:26:33;;;;;;;376.35;365.25;;;;;;;;;;5043796;28;20180;-90
2023/09/14 01:29:00;;;;;;;389.25;377.73;;;;;;;;;;5042908;28;20662;-91
2023/09/14 01:31:28;;;;;;;421.05;408.40;;;;;;;;;;5044459;28;20184;-90
2023/09/14 01:33:54;;;;;;;399.48;387.42;;;;;;;;;;5042449;28;20729;-91
2023/09/14 01:36:29;;;;;;;408.33;395.90;;;;;;;;;;5026948;28;20192;-90
2023/09/14 01:38:55;;;;;;;371.98;361.02;;;;;;;;;;5031294;28;20248;-90
2023/09/14 01:41:22;;;;;;;375.40;364.30;;;;;;;;;;5027109;28;20216;-89
2023/09/14 01:43:50;;;;;;;356.92;346.42;;;;;;;;;;5044529;28;20211;-91
2023/09/14 01:46:16;;;;;;;346.23;336.02;;;;;;;;;;5039901;28;20195;-90
2023/09/14 01:48:43;;;;;;;325.75;316.23;;;;;;;;;;5040511;28;20604;-91
2023/09/14 01:51:09;;;;;;;330.85;321.15;;;;;;;;;;5043167;28;20758;-91
2023/09/14 01:53:35;;;;;;;319.20;309.95;;;;;;;;;;5043572;28;20212;-90
2023/09/14 01:56:01;;;;;;;309.25;300.30;;;;;;;;;;5043617;28;20286;-91
2023/09/14 01:58:27;;;;;;;306.40;297.60;;;;;;;;;;5036900;28;20226;-90
2023/09/14 02:00:54;;;;;;;294.60;286.17;;;;;;;;;;5043829;28;20218;-91
2023/09/14 02:03:20;;;;;;;294.60;286.02;;;;;;;;;;5035042;28;20282;-90
2023/09/14 02:05:47;;;;;;;287.27;279.00;;;;;;;;;;5042549;28;20227;-90
2023/09/14 02:08:13;;;;;;;297.85;289.20;;;;;;;;;;5042640;28;20261;-89
2023/09/14 02:10:39;;;;;;;294.00;285.45;;;;;;;;;;5043182;28;20196;-91
2023/09/14 02:13:05;;;;;;;286.93;278.53;;;;;;;;;;5042557;28;20215;-90
2023/09/14 02:15:31;;;;;;;292.88;284.42;;;;;;;;;;5042901;28;20197;-89
2023/09/14 02:17:57;;;;;;;300.30;291.67;;;;;;;;;;5041280;28;20214;-90
2023/09/14 02:20:23;;;;;;;311.50;302.45;;;;;;;;;;5041231;28;20215;-91
2023/09/14 02:22:49;;;;;;;277.02;269.02;;;;;;;;;;5023399;28;20203;-91
2023/09/14 02:25:15;;;;;;;272.02;264.02;;;;;;;;;;5023427;28;20195;-90
2023/09/14 02:27:41;;;;;;;294.98;286.38;;;;;;;;;;5038079;28;20198;-91
2023/09/14 02:30:08;;;;;;;263.87;256.27;;;;;;;;;;5043408;28;20215;-91
2023/09/14 02:32:34;;;;;;;273.35;265.42;;;;;;;;;;5040443;28;20179;-90
2023/09/14 02:35:00;;;;;;;274.07;266.03;;;;;;;;;;5022246;28;20696;-90
2023/09/14 02:37:26;;;;;;;309.65;300.85;;;;;;;;;;5022905;28;20335;-91
2023/09/14 02:39:52;;;;;;;301.17;292.37;;;;;;;;;;5040301;28;20188;-91
2023/09/14 02:42:18;;;;;;;310.60;301.40;;;;;;;;;;5043142;28;20278;-90
2023/09/14 02:44:44;;;;;;;309.10;300.17;;;;;;;;;;5041097;28;20222;-90
2023/09/14 02:47:10;;;;;;;309.03;300.00;;;;;;;;;;5042488;28;20267;-90
2023/09/14 02:49:36;;;;;;;305.88;296.88;;;;;;;;;;5026212;28;20183;-90
2023/09/14 02:52:02;;;;;;;313.98;304.92;;;;;;;;;;5039963;28;20541;-90
2023/09/14 02:54:28;;;;;;;322.20;312.98;;;;;;;;;;5042473;28;20212;-89
2023/09/14 02:56:55;;;;;;;315.85;306.65;;;;;;;;;;5042842;28;20206;-91
2023/09/14 02:59:21;;;;;;;298.20;289.50;;;;;;;;;;5034894;28;20196;-90
2023/09/14 03:01:49;;;;;;;296.65;287.92;;;;;;;;;;5053578;28;20219;-90
2023/09/14 03:04:15;;;;;;;290.77;282.35;;;;;;;;;;5055808;28;20219;-90
2023/09/14 03:06:41;;;;;;;294.25;285.73;;;;;;;;;;5044164;28;20395;-91
2023/09/14 03:09:07;;;;;;;326.25;316.63;;;;;;;;;;5048724;28;20188;-91
2023/09/14 03:11:33;;;;;;;329.23;319.48;;;;;;;;;;5046141;28;20195;-90
2023/09/14 03:13:59;;;;;;;332.80;322.80;;;;;;;;;;5041424;28;20216;-92
2023/09/14 03:16:25;;;;;;;315.43;306.23;;;;;;;;;;5039529;28;20181;-91
2023/09/14 03:18:52;;;;;;;308.17;299.13;;;;;;;;;;5033601;28;20176;-89
2023/09/14 03:21:24;;;;;;;308.00;298.60;;;;;;;;;;5028067;28;20191;-90
2023/09/14 03:23:51;;;;;;;281.47;273.40;;;;;;;;;;5039698;28;20223;-91
2023/09/14 03:26:17;;;;;;;297.67;288.97;;;;;;;;;;5023146;28;20245;-90
2023/09/14 03:28:43;;;;;;;302.67;293.60;;;;;;;;;;5022060;28;20602;-89
2023/09/14 03:31:10;;;;;;;313.90;304.67;;;;;;;;;;5021406;28;20194;-92
2023/09/14 03:33:37;;;;;;;303.80;294.90;;;;;;;;;;5013037;28;20215;-90
2023/09/14 03:36:03;;;;;;;293.17;284.67;;;;;;;;;;5029496;28;20190;-90
2023/09/14 03:38:30;;;;;;;308.37;299.47;;;;;;;;;;5020343;28;20203;-89
2023/09/14 03:40:56;;;;;;;302.33;293.33;;;;;;;;;;5022086;28;20679;-89
2023/09/14 03:43:22;;;;;;;305.20;296.40;;;;;;;;;;5037981;28;20229;-89
2023/09/14 03:45:48;;;;;;;310.80;301.90;;;;;;;;;;5036470;28;20190;-88
2023/09/14 03:48:14;;;;;;;308.80;299.70;;;;;;;;;;5050502;28;20209;-91
2023/09/14 03:50:40;;;;;;;302.13;293.20;;;;;;;;;;5053997;28;20286;-89
2023/09/14 03:53:06;;;;;;;286.52;278.17;;;;;;;;;;5043893;28;20206;-90
2023/09/14 03:55:32;;;;;;;299.83;291.17;;;;;;;;;;5046897;28;20183;-90
2023/09/14 03:57:58;;;;;;;323.35;313.92;;;;;;;;;;5046070;28;20202;-89
2023/09/14 04:00:24;;;;;;;303.67;295.00;;;;;;;;;;5039755;28;20209;-89
2023/09/14 04:02:50;;;;;;;304.00;295.23;;;;;;;;;;5035386;28;20234;-88
2023/09/14 04:05:17;;;;;;;288.93;280.70;;;;;;;;;;5036417;28;20196;-89
2023/09/14 04:07:46;;;;;;;267.67;259.93;;;;;;;;;;5025920;28;20279;-89
2023/09/14 04:10:12;;;;;;;279.20;271.30;;;;;;;;;;5039151;28;20222;-90
2023/09/14 04:12:39;;;;;;;268.70;261.00;;;;;;;;;;5019080;28;20452;-89
2023/09/14 04:15:05;;;;;;;266.30;258.63;;;;;;;;;;5025031;28;20192;-88
2023/09/14 04:17:31;;;;;;;256.30;248.87;;;;;;;;;;5038311;28;20301;-88
2023/09/14 04:19:57;;;;;;;255.73;248.17;;;;;;;;;;5037528;28;20192;-89
2023/09/14 04:22:23;;;;;;;242.23;235.37;;;;;;;;;;5028084;28;20192;-89
2023/09/14 04:24:50;;;;;;;219.87;213.50;;;;;;;;;;5032792;28;20603;-88
2023/09/14 04:27:16;;;;;;;221.47;215.00;;;;;;;;;;5031871;28;20180;-89
2023/09/14 04:29:42;;;;;;;223.33;216.37;;;;;;;;;;5029730;28;20217;-90
2023/09/14 04:32:08;;;;;;;225.17;218.63;;;;;;;;;;5038533;28;20187;-89
2023/09/14 04:34:34;;;;;;;226.90;220.10;;;;;;;;;;5039232;28;20216;-88
2023/09/14 04:37:00;;;;;;;227.60;220.83;;;;;;;;;;5039569;28;20193;-90
2023/09/14 04:39:26;;;;;;;238.70;230.93;;;;;;;;;;5027503;28;20223;-88
2023/09/14 04:41:53;;;;;;;223.67;217.23;;;;;;;;;;5044124;28;20586;-89
2023/09/14 04:44:19;;;;;;;208.17;202.10;;;;;;;;;;5036514;28;20213;-85
2023/09/14 04:46:45;;;;;;;195.70;189.97;;;;;;;;;;5044117;28;20195;-86
2023/09/14 04:49:12;;;;;;;213.70;207.47;;;;;;;;;;5036076;28;20238;-86
2023/09/14 04:51:38;;;;;;;185.80;180.10;;;;;;;;;;5025993;28;20212;-86
2023/09/14 04:54:04;;;;;;;187.07;181.40;;;;;;;;;;5046176;28;20208;-87
2023/09/14 04:56:30;;;;;;;197.20;191.27;;;;;;;;;;5046492;28;20214;-86
2023/09/14 04:58:57;;;;;;;204.00;197.97;;;;;;;;;;5038759;28;20193;-86
2023/09/14 05:01:23;;;;;;;194.00;188.23;;;;;;;;;;5044991;28;20231;-87
2023/09/14 05:03:49;;;;;;;184.40;178.90;;;;;;;;;;5032080;28;20225;-87
2023/09/14 05:06:15;;;;;;;205.37;199.30;;;;;;;;;;5041089;28;20224;-86
2023/09/14 05:08:41;;;;;;;204.43;198.40;;;;;;;;;;5044253;28;20181;-85
2023/09/14 05:11:07;;;;;;;205.47;199.47;;;;;;;;;;5049042;28;20183;-86
2023/09/14 05:13:33;;;;;;;217.03;210.73;;;;;;;;;;5044154;28;20447;-87
2023/09/14 05:15:59;;;;;;;208.03;201.67;;;;;;;;;;5045987;28;20261;-87
2023/09/14 05:18:25;;;;;;;203.90;198.03;;;;;;;;;;5043142;28;20182;-86
2023/09/14 05:20:52;;;;;;;214.20;208.00;;;;;;;;;;5047535;28;20255;-86
2023/09/14 05:23:18;;;;;;;197.87;192.03;;;;;;;;;;5027364;28;20218;-87
2023/09/14 05:25:45;;;;;;;195.47;189.73;;;;;;;;;;5026655;28;20193;-87
2023/09/14 05:28:11;;;;;;;189.87;183.73;;;;;;;;;;5025574;28;20676;-86
2023/09/14 05:30:38;;;;;;;379.23;363.47;;;;;;;;;;5025509;28;20187;-86
2023/09/14 05:33:04;;;;;;;202.27;196.40;;;;;;;;;;5034811;28;20737;-86
2023/09/14 05:35:31;;;;;;;198.57;192.50;;;;;;;;;;5031132;28;20255;-87
2023/09/14 05:38:00;;;;;;;199.77;193.80;;;;;;;;;;5029474;28;20209;-85
2023/09/14 05:40:26;;;;;;;208.53;202.43;;;;;;;;;;5030027;28;20210;-87
2023/09/14 05:42:54;;;;;;;187.40;181.77;;;;;;;;;;5014995;28;20682;-87
2023/09/14 05:45:20;;;;;;;206.23;199.93;;;;;;;;;;5035086;28;20264;-86
2023/09/14 05:47:46;;;;;;;223.60;216.83;;;;;;;;;;5039472;28;20266;-87
2023/09/14 05:50:12;;;;;;;217.13;210.67;;;;;;;;;;5031019;28;20213;-87
2023/09/14 05:52:38;;;;;;;202.63;196.33;;;;;;;;;;5029956;28;20196;-87
2023/09/14 05:55:04;;;;;;;221.97;215.37;;;;;;;;;;5034771;28;20200;-87
2023/09/14 05:57:31;;;;;;;226.00;219.23;;;;;;;;;;5034513;28;20198;-86
2023/09/14 05:59:57;;;;;;;219.47;212.80;;;;;;;;;;5032111;28;20645;-87
2023/09/14 06:02:24;;;;;;;200.93;194.93;;;;;;;;;;5032298;28;20250;-88
2023/09/14 06:04:50;;;;;;;224.93;218.03;;;;;;;;;;5027987;28;20223;-86
2023/09/14 06:07:17;;;;;;;242.17;234.30;;;;;;;;;;5038559;28;20180;-87
2023/09/14 06:09:43;;;;;;;223.97;217.10;;;;;;;;;;5036824;28;20207;-87
2023/09/14 06:12:09;;;;;;;221.97;215.17;;;;;;;;;;5027470;28;20213;-87
2023/09/14 06:14:37;;;;;;;220.30;213.30;;;;;;;;;;5030908;28;20575;-86
2023/09/14 06:17:03;;;;;;;205.93;199.57;;;;;;;;;;5027575;28;20208;-88
2023/09/14 06:19:29;;;;;;;216.13;209.43;;;;;;;;;;5032537;28;20200;-86
2023/09/14 06:21:55;;;;;;;194.53;188.70;;;;;;;;;;5032586;28;20192;-85
2023/09/14 06:24:21;;;;;;;203.87;197.57;;;;;;;;;;5037551;28;20637;-86
2023/09/14 06:26:48;;;;;;;186.17;180.33;;;;;;;;;;5024158;28;20185;-86
2023/09/14 06:29:16;;;;;;;191.20;185.43;;;;;;;;;;5030430;28;20775;-87
2023/09/14 06:31:42;;;;;;;172.20;166.90;;;;;;;;;;5032358;28;20180;-88
2023/09/14 06:34:08;;;;;;;190.50;184.77;;;;;;;;;;5029757;28;20205;-87
2023/09/14 06:36:34;;;;;;;176.40;170.70;;;;;;;;;;5002528;28;20847;-87
2023/09/14 06:39:01;;;;;;;163.20;157.87;;;;;;;;;;5004945;28;20212;-87
2023/09/14 06:41:27;;;;;;;169.67;163.93;;;;;;;;;;5020626;28;20201;-87
2023/09/14 06:43:53;;;;;;;162.97;157.67;;;;;;;;;;5021851;28;20227;-87
2023/09/14 06:46:19;;;;;;;167.67;162.60;;;;;;;;;;5025459;28;20266;-88
2023/09/14 06:48:45;;;;;;;164.00;158.90;;;;;;;;;;5025353;28;20201;-87
2023/09/14 06:51:11;;;;;;;157.33;152.37;;;;;;;;;;5022709;28;20209;-86
2023/09/14 06:53:37;;;;;;;152.00;147.20;;;;;;;;;;5024973;28;20228;-87
2023/09/14 06:56:07;;;;;;;155.93;151.07;;;;;;;;;;5026336;28;20185;-88
2023/09/14 06:58:33;;;;;;;157.63;152.70;;;;;;;;;;5023205;28;20198;-87
2023/09/14 07:01:03;;;;;;;135.50;131.23;;;;;;;;;;5018014;28;20194;-87
2023/09/14 07:03:29;;;;;;;149.97;145.40;;;;;;;;;;5025229;28;20787;-87
2023/09/14 07:05:56;;;;;;;143.70;139.23;;;;;;;;;;5024724;28;20192;-87
2023/09/14 07:08:22;;;;;;;149.07;144.43;;;;;;;;;;5022000;28;20789;-86
2023/09/14 07:10:50;;;;;;;150.53;145.53;;;;;;;;;;5020169;28;20197;-89
2023/09/14 07:13:16;;;;;;;156.50;151.43;;;;;;;;;;5025517;28;20210;-90
2023/09/14 07:15:43;;;;;;;150.07;145.37;;;;;;;;;;5026685;28;20272;-89
2023/09/14 07:18:11;;;;;;;146.43;141.90;;;;;;;;;;5022688;28;20200;-89
2023/09/14 07:20:37;;;;;;;154.70;149.70;;;;;;;;;;5026993;28;20205;-88
2023/09/14 07:23:13;;;;;;;159.10;154.30;;;;;;;;;;5006828;27;4051457;-89
2023/09/14 07:25:39;;;;;;;170.17;164.97;;;;;;;;;;5106190;27;20197;-90
2023/09/14 07:28:06;;;;;;;172.80;167.43;;;;;;;;;;5113441;28;20203;-90
2023/09/14 07:30:37;;;;;;;186.37;180.63;;;;;;;;;;5108330;28;20248;-89
2023/09/14 07:33:03;;;;;;;219.20;212.70;;;;;;;;;;5113512;28;20208;-89
2023/09/14 07:35:29;;;;;;;228.13;221.33;;;;;;;;;;5104565;28;20213;-89
2023/09/14 07:37:56;;;;;;;237.30;230.37;;;;;;;;;;5108503;28;21011;-91
2023/09/14 07:40:22;;;;;;;227.77;221.10;;;;;;;;;;5102513;28;20247;-90
2023/09/14 07:42:49;;;;;;;238.17;231.17;;;;;;;;;;5107317;28;20469;-91
2023/09/14 07:45:15;;;;;;;225.13;218.47;;;;;;;;;;5115185;28;20186;-91
2023/09/14 07:47:45;;;;;;;239.97;232.90;;;;;;;;;;5110975;28;20209;-90
2023/09/14 07:50:14;;;;;;;246.40;238.93;;;;;;;;;;5106238;28;20211;-90
2023/09/14 07:55:31;;;;;;;232.90;226.13;;;;;;;;;;5100718;27;20753;-89
2023/09/14 07:58:00;;;;;;;237.83;230.90;;;;;;;;;;5111484;28;20262;-87
2023/09/14 08:00:26;;;;;;;253.67;246.00;;;;;;;;;;5102935;28;20210;-88
2023/09/14 08:02:52;;;;;;;256.87;249.47;;;;;;;;;;5112384;28;20225;-90
2023/09/14 08:05:19;;;;;;;265.67;257.87;;;;;;;;;;5115168;28;20193;-90
2023/09/14 08:08:04;;;;;;;283.07;274.87;;;;;;;;;;5113892;28;20197;-91
2023/09/14 08:10:31;;;;;;;270.97;263.07;;;;;;;;;;5105596;28;20797;-89
2023/09/14 08:12:58;;;;;;;301.97;293.07;;;;;;;;;;5114354;28;20224;-90
2023/09/14 08:15:28;;;;;;;281.43;272.97;;;;;;;;;;5107241;28;20223;-90
2023/09/14 08:17:54;;;;;;;288.27;279.97;;;;;;;;;;5118855;28;20202;-90
2023/09/14 08:20:20;;;;;;;306.67;297.67;;;;;;;;;;5108374;28;20247;-90
2023/09/14 08:22:47;;;;;;;267.75;259.58;;;;;;;;;;5111871;28;20224;-89
2023/09/14 08:25:15;;;;;;;305.00;295.83;;;;;;;;;;5107297;27;20208;-88
2023/09/14 08:27:43;;;;;;;315.27;305.60;;;;;;;;;;5105068;28;20193;-88
2023/09/14 08:30:11;;;;;;;282.13;273.85;;;;;;;;;;5105973;28;20198;-90
2023/09/14 08:32:40;;;;;;;355.53;344.87;;;;;;;;;;5103404;28;20185;-89
2023/09/14 08:35:25;;;;;;;351.87;341.30;;;;;;;;;;5092832;28;20297;-90
2023/09/14 08:43:58;;;;;;;284.58;276.40;;;;;;;;;;5093445;28;20292;-89
2023/09/14 08:46:33;;;;;;;332.75;322.92;;;;;;;;;;5094650;28;20186;-90
2023/09/14 08:49:06;;;;;;;287.55;278.80;;;;;;;;;;5093360;28;20264;-86
2023/09/14 08:51:37;;;;;;;288.30;279.50;;;;;;;;;;5085656;28;20189;-91
2023/09/14 08:54:03;;;;;;;296.70;287.85;;;;;;;;;;5098308;28;20208;-90
2023/09/14 08:56:30;;;;;;;299.98;291.27;;;;;;;;;;5088474;28;20201;-89
2023/09/14 08:59:06;;;;;;;301.30;292.33;;;;;;;;;;5089943;28;21331;-89
2023/09/14 09:01:48;;;;;;;;;;;;;;;;;;;;;
2023/09/14 09:04:20;;;;;;;306.55;297.65;;;;;;;;;;5096687;28;20270;-90
2023/09/14 09:06:49;;;;;;;329.17;318.95;;;;;;;;;;5106309;28;20239;-91
2023/09/14 09:09:23;;;;;;;379.83;368.52;;;;;;;;;;5111612;28;20171;-90
2023/09/14 09:11:53;;;;;;;1999.90;999.90;;;;;;;;;;5115239;28;20176;-90
2023/09/14 09:14:23;;;;;;;1999.90;999.90;;;;;;;;;;5112517;28;20194;-89
2023/09/14 09:17:24;;;;;;;1999.90;999.90;;;;;;;;;;5100045;28;20174;-91
2023/09/14 09:19:52;;;;;;;1999.90;999.90;;;;;;;;;;5045475;28;20224;-89
2023/09/14 09:22:19;;;;;;;1999.90;999.90;;;;;;;;;;5097115;28;20246;-89
2023/09/14 09:25:17;;;;;;;1999.90;999.90;;;;;;;;;;5097238;28;20242;-91
2023/09/14 09:27:44;;;;;;;1999.90;999.90;;;;;;;;;;5088373;28;20187;-90
2023/09/14 09:30:10;;;;;;;1999.90;999.90;;;;;;;;;;5093609;28;20893;-91
2023/09/14 09:32:43;;;;;;;1999.90;999.90;;;;;;;;;;5096261;28;20193;-91
2023/09/14 09:35:37;;;;;;;1999.90;999.90;;;;;;;;;;5097204;28;20235;-91
2023/09/14 09:38:22;;;;;;;;;;;;;;;;;;;;;
2023/09/14 09:41:03;;;;;;;1999.90;999.90;;;;;;;;;;5092052;28;20738;-89
2023/09/14 09:43:47;;;;;;;1999.90;999.90;;;;;;;;;;5094648;28;20293;-91
2023/09/14 09:46:22;;;;;;;1999.90;999.90;;;;;;;;;;5095567;28;20186;-89
2023/09/14 09:48:48;;;;;;;1999.90;999.90;;;;;;;;;;5100471;28;20183;-90
2023/09/14 09:51:15;;;;;;;1999.90;999.90;;;;;;;;;;5090708;28;20197;-91
2023/09/14 09:54:02;;;;;;;1999.90;999.90;;;;;;;;;;5089201;28;21468;-90
2023/09/14 09:56:33;;;;;;;1999.90;999.90;;;;;;;;;;5102798;28;20194;-90
2023/09/14 09:59:03;;;;;;;1999.90;999.90;;;;;;;;;;5095901;28;20191;-89
2023/09/14 10:01:31;;;;;;;1999.90;999.90;;;;;;;;;;5089716;28;20221;-91
2023/09/14 10:03:59;;;;;;;1999.90;999.90;;;;;;;;;;5074400;22;20817;-94
2023/09/14 10:06:25;;;;;;;1999.90;999.90;;;;;;;;;;5048760;28;20185;-94
2023/09/14 10:09:02;;;;;;;1999.90;999.90;;;;;;;;;;5054721;28;20243;-94
2023/09/14 10:11:28;;;;;;;1999.90;999.90;;;;;;;;;;5052742;28;20203;-94
2023/09/14 10:13:57;;;;;;;1999.90;999.90;;;;;;;;;;5052694;28;20215;-95
2023/09/14 10:16:24;;;;;;;1999.90;999.90;;;;;;;;;;5052597;28;20227;-95
2023/09/14 10:18:56;;;;;;;1999.90;999.90;;;;;;;;;;5043523;28;20223;-94
2023/09/14 10:21:24;;;;;;;1999.90;999.90;;;;;;;;;;5048036;28;20235;-93
2023/09/14 10:23:51;;;;;;;1999.90;999.90;;;;;;;;;;5055187;28;20558;-96
2023/09/14 10:26:23;;;;;;;1999.90;999.90;;;;;;;;;;5046986;28;20212;-96
2023/09/14 10:28:56;;;;;;;1999.90;999.90;;;;;;;;;;5060448;28;20209;-94
2023/09/14 10:31:26;;;;;;;1999.90;999.90;;;;;;;;;;5058165;28;20189;-96
2023/09/14 10:33:59;;;;;;;1999.90;999.90;;;;;;;;;;5053418;28;20207;-94
2023/09/14 10:36:30;;;;;;;1999.90;999.90;;;;;;;;;;5055315;28;20188;-95
2023/09/14 10:38:58;;;;;;;1999.90;999.90;;;;;;;;;;5054609;28;20628;-94
2023/09/14 10:41:24;;;;;;;1999.90;999.90;;;;;;;;;;5050879;28;20231;-95
2023/09/14 10:43:53;;;;;;;1999.90;999.90;;;;;;;;;;5051895;28;20200;-95
2023/09/14 10:46:22;;;;;;;1999.90;999.90;;;;;;;;;;5042103;28;20180;-94
2023/09/14 10:48:55;;;;;;;1999.90;999.90;;;;;;;;;;5052847;28;20740;-95
2023/09/14 10:51:23;;;;;;;1999.90;999.90;;;;;;;;;;5054167;28;20201;-94
2023/09/14 10:53:51;;;;;;;1999.90;999.90;;;;;;;;;;5051854;28;20235;-96
2023/09/14 10:56:30;;;;;;;1999.90;999.90;;;;;;;;;;5043797;28;20185;-95
2023/09/14 10:59:08;;;;;;;1999.90;999.90;;;;;;;;;;5044855;28;20374;-96
2023/09/14 11:01:45;;;;;;;1999.90;999.90;;;;;;;;;;5051061;28;20236;-94
2023/09/14 11:04:13;;;;;;;1999.90;999.90;;;;;;;;;;5046497;28;20220;-95
2023/09/14 11:06:43;;;;;;;1999.90;999.90;;;;;;;;;;5048020;28;20196;-94
2023/09/14 11:09:09;;;;;;;1999.90;999.90;;;;;;;;;;5053586;28;20247;-94
2023/09/14 11:11:39;;;;;;;1999.90;999.90;;;;;;;;;;5045983;28;20219;-92
2023/09/14 11:14:08;;;;;;;1999.90;999.90;;;;;;;;;;5047920;28;20180;-95
2023/09/14 11:16:43;;;;;;;1999.90;999.90;;;;;;;;;;5045487;28;20173;-95
2023/09/14 11:19:10;;;;;;;1999.90;999.90;;;;;;;;;;5048275;28;20228;-94
2023/09/14 11:21:36;;;;;;;1999.90;999.90;;;;;;;;;;5045596;28;20239;-93
2023/09/14 11:24:03;;;;;;;1999.90;999.90;;;;;;;;;;5048520;28;20203;-94
2023/09/14 11:26:33;;;;;;;1999.90;999.90;;;;;;;;;;5050889;28;20181;-93
2023/09/14 11:29:02;;;;;;;1999.90;999.90;;;;;;;;;;5045213;28;21353;-95
2023/09/14 11:31:34;;;;;;;1999.90;999.90;;;;;;;;;;5042954;28;20230;-95
2023/09/14 11:34:26;;;;;;;1999.90;999.90;;;;;;;;;;5047753;28;20195;-94
2023/09/14 11:36:54;;;;;;;1999.90;999.90;;;;;;;;;;5047113;28;20203;-95
2023/09/14 11:39:20;;;;;;;1999.90;999.90;;;;;;;;;;5049889;28;20209;-94
2023/09/14 11:41:50;;;;;;;1999.90;999.90;;;;;;;;;;5051252;28;20207;-96
2023/09/14 11:44:16;;;;;;;1999.90;999.90;;;;;;;;;;5055179;28;20185;-96
2023/09/14 11:46:49;;;;;;;1999.90;999.90;;;;;;;;;;5058313;28;20176;-96
2023/09/14 11:49:17;;;;;;;1999.90;999.90;;;;;;;;;;5056658;28;20208;-96
2023/09/14 11:51:43;;;;;;;1999.90;999.90;;;;;;;;;;5049389;28;20189;-96
2023/09/14 11:54:09;;;;;;;1999.90;999.90;;;;;;;;;;5058590;28;20219;-96
2023/09/14 11:56:36;;;;;;;1999.90;999.90;;;;;;;;;;5063557;28;20220;-95
2023/09/14 11:59:03;;;;;;;1999.90;999.90;;;;;;;;;;5052801;28;20223;-95
2023/09/14 12:01:32;;;;;;;1999.90;999.90;;;;;;;;;;5055609;28;20216;-94
2023/09/14 12:03:59;;;;;;;1999.90;999.90;;;;;;;;;;5050762;28;20254;-94
2023/09/14 12:06:28;;;;;;;1999.90;999.90;;;;;;;;;;5052059;28;20195;-94
2023/09/14 12:08:54;;;;;;;1999.90;999.90;;;;;;;;;;5048032;28;20284;-93
2023/09/14 12:11:22;;;;;;;1999.90;999.90;;;;;;;;;;5053943;28;20189;-94
2023/09/14 12:13:57;;;;;;;1999.90;999.90;;;;;;;;;;5052946;28;20224;-94
2023/09/14 12:16:27;;;;;;;1999.90;999.90;;;;;;;;;;5051476;28;20188;-93
2023/09/14 12:18:54;;;;;;;1999.90;999.90;;;;;;;;;;5057946;28;20227;-94
2023/09/14 12:21:23;;;;;;;1999.90;999.90;;;;;;;;;;5050025;28;20308;-94
2023/09/14 12:23:50;;;;;;;1999.90;999.90;;;;;;;;;;5053382;28;20275;-94
2023/09/14 12:26:18;;;;;;;1999.90;999.90;;;;;;;;;;5051343;28;20188;-94
2023/09/14 12:28:49;;;;;;;1999.90;999.90;;;;;;;;;;5049294;28;20219;-93
2023/09/14 12:31:15;;;;;;;1999.90;999.90;;;;;;;;;;5042364;28;20196;-90
2023/09/14 12:33:48;;;;;;;1999.90;999.90;;;;;;;;;;5048915;28;20256;-93
2023/09/14 12:36:16;;;;;;;1999.90;999.90;;;;;;;;;;5049268;28;20344;-96
2023/09/14 12:38:43;;;;;;;1999.90;999.90;;;;;;;;;;5046477;28;20185;-95
2023/09/14 12:41:09;;;;;;;1999.90;999.90;;;;;;;;;;5049947;28;20216;-96
2023/09/14 12:43:35;;;;;;;1999.90;999.90;;;;;;;;;;5049244;28;20244;-95
2023/09/14 12:46:02;;;;;;;1999.90;999.90;;;;;;;;;;5053448;28;20306;-96
2023/09/14 12:48:32;;;;;;;1999.90;999.90;;;;;;;;;;5046937;28;20228;-96
2023/09/14 12:50:58;;;;;;;1999.90;999.90;;;;;;;;;;5050333;28;20268;-94
2023/09/14 12:53:27;;;;;;;1999.90;999.90;;;;;;;;;;5051020;28;20184;-94
2023/09/14 12:55:54;;;;;;;1999.90;999.90;;;;;;;;;;5048580;28;20206;-95
2023/09/14 12:58:21;;;;;;;1999.90;999.90;;;;;;;;;;5054960;28;20234;-95
2023/09/14 13:00:47;;;;;;;1999.90;999.90;;;;;;;;;;5040048;28;20592;-96
2023/09/14 13:03:19;;;;;;;1999.90;999.90;;;;;;;;;;5052610;28;20690;-93
2023/09/14 13:05:48;;;;;;;1999.90;999.90;;;;;;;;;;5050384;28;20218;-93
2023/09/14 13:08:15;;;;;;;1999.90;999.90;;;;;;;;;;5047388;28;20292;-95
2023/09/14 13:10:41;;;;;;;1999.90;999.90;;;;;;;;;;5047771;28;20188;-94
2023/09/14 13:13:10;;;;;;;1999.90;999.90;;;;;;;;;;5040951;28;20191;-94
2023/09/14 13:15:38;;;;;;;1999.90;999.90;;;;;;;;;;5042647;28;20188;-95
2023/09/14 13:18:08;;;;;;;1999.90;999.90;;;;;;;;;;5050393;28;20607;-96
2023/09/14 13:20:35;;;;;;;1999.90;999.90;;;;;;;;;;5043261;28;20204;-95
2023/09/14 13:23:05;;;;;;;1999.90;999.90;;;;;;;;;;5050082;28;20561;-94
2023/09/14 13:25:31;;;;;;;1999.90;999.90;;;;;;;;;;5052531;28;20241;-93
2023/09/14 13:27:59;;;;;;;1999.90;999.90;;;;;;;;;;5050549;28;20205;-93
2023/09/14 13:30:25;;;;;;;1999.90;999.90;;;;;;;;;;5041281;28;20188;-95
2023/09/14 13:32:55;;;;;;;1999.90;999.90;;;;;;;;;;5043041;28;20193;-93
2023/09/14 13:35:24;;;;;;;1999.90;999.90;;;;;;;;;;5052523;28;20192;-94
2023/09/14 13:37:54;;;;;;;1999.90;999.90;;;;;;;;;;5048057;28;20205;-95
2023/09/14 13:40:24;;;;;;;1999.90;999.90;;;;;;;;;;5043474;28;20180;-96
2023/09/14 13:42:50;;;;;;;1999.90;999.90;;;;;;;;;;5049776;28;20216;-95
2023/09/14 13:45:19;;;;;;;1999.90;999.90;;;;;;;;;;5042752;28;20181;-95
2023/09/14 13:47:50;;;;;;;1999.90;999.90;;;;;;;;;;5048375;28;20205;-94
2023/09/14 13:50:24;;;;;;;1999.90;999.90;;;;;;;;;;5048814;28;20235;-95
2023/09/14 13:52:51;;;;;;;1999.90;999.90;;;;;;;;;;5047499;28;20192;-94
2023/09/14 13:55:17;;;;;;;1999.90;999.90;;;;;;;;;;5052880;28;20199;-94
2023/09/14 13:57:44;;;;;;;1999.90;999.90;;;;;;;;;;5042778;28;20209;-95
2023/09/14 14:00:11;;;;;;;1999.90;999.90;;;;;;;;;;5049424;28;20193;-94
2023/09/14 14:02:41;;;;;;;1999.90;999.90;;;;;;;;;;5047044;28;20267;-94